createdAt,value
2018-06-08T04:39:11.773Z,61.50
2018-06-08T04:41:40.179Z,69.60
2018-06-08T04:44:08.649Z,61.90
2018-06-08T04:46:37.110Z,60.37
2018-06-08T04:49:05.538Z,66.67
2018-06-08T04:51:34.374Z,58.63
2018-06-08T04:54:02.727Z,72.83
2018-06-08T04:56:32.098Z,67.93
2018-06-08T04:59:00.568Z,66.40
2018-06-08T05:01:29.615Z,56.77
2018-06-08T05:03:58.097Z,72.73
2018-06-08T05:06:26.901Z,65.80
2018-06-08T05:08:55.738Z,67.97
2018-06-08T05:11:24.647Z,68.77
2018-06-08T05:13:53.442Z,58.40
2018-06-08T05:16:22.111Z,68.67
2018-06-08T05:18:50.738Z,77.13
2018-06-08T05:21:19.298Z,64.20
2018-06-08T05:23:47.714Z,69.80
2018-06-08T05:26:16.574Z,65.57
2018-06-08T05:28:45.782Z,66.13
2018-06-08T05:31:14.530Z,68.73
2018-06-08T05:33:43.109Z,75.73
2018-06-08T05:36:12.047Z,68.20
2018-06-08T05:38:41.502Z,63.70
2018-06-08T05:41:12.591Z,66.57
2018-06-08T05:43:41.633Z,73.07
2018-06-08T05:46:10.617Z,74.33
2018-06-08T05:48:39.707Z,73.43
2018-06-08T05:51:09.928Z,92.13
2018-06-08T05:53:39.223Z,80.60
2018-06-08T05:56:08.032Z,75.13
2018-06-08T05:58:37.863Z,74.37
2018-06-08T06:01:07.345Z,83.23
2018-06-08T06:03:38.391Z,88.60
2018-06-08T06:06:06.918Z,84.77
2018-06-08T06:08:38.898Z,81.40
2018-06-08T06:11:07.686Z,90.97
2018-06-08T06:13:37.759Z,90.43
2018-06-08T06:16:06.412Z,85.57
2018-06-08T06:18:47.432Z,82.60
2018-06-08T06:21:15.820Z,87.63
2018-06-08T06:23:44.289Z,90.40
2018-06-08T06:26:12.983Z,84.47
2018-06-08T06:28:42.111Z,82.73
2018-06-08T06:31:13.708Z,93.50
2018-06-08T06:33:43.567Z,88.27
2018-06-08T06:36:12.398Z,105.53
2018-06-08T06:38:45.510Z,98.90
2018-06-08T06:44:07.249Z,94.77
2018-06-08T06:46:35.662Z,93.90
2018-06-08T06:58:19.008Z,95.57
2018-06-08T07:00:47.513Z,111.53
2018-06-08T07:03:16.935Z,82.03
2018-06-08T07:05:45.542Z,92.10
2018-06-08T07:08:18.877Z,80.50
2018-06-08T07:10:47.388Z,82.40
2018-06-08T07:13:15.843Z,85.50
2018-06-08T07:15:44.216Z,86.87
2018-06-08T07:18:12.581Z,91.50
2018-06-08T07:20:40.926Z,76.03
2018-06-08T07:23:09.372Z,83.20
2018-06-08T07:25:37.682Z,78.33
2018-06-08T07:28:06.011Z,76.50
2018-06-08T07:30:34.304Z,84.40
2018-06-08T07:33:02.709Z,69.13
2018-06-08T07:35:31.073Z,70.80
2018-06-08T07:37:59.424Z,70.53
2018-06-08T07:40:27.905Z,65.97
2018-06-08T07:42:56.259Z,63.47
2018-06-08T07:45:24.713Z,64.43
2018-06-08T07:47:53.042Z,56.63
2018-06-08T07:50:21.425Z,54.73
2018-06-08T07:52:49.777Z,57.63
2018-06-08T07:55:18.175Z,52.63
2018-06-08T07:57:46.497Z,49.87
2018-06-08T08:00:14.809Z,52.23
2018-06-08T08:02:43.186Z,49.07
2018-06-08T08:05:11.476Z,48.60
2018-06-08T08:07:39.846Z,46.30
2018-06-08T08:10:08.345Z,45.97
2018-06-08T08:12:36.661Z,47.27
2018-06-08T08:15:05.051Z,59.23
2018-06-08T08:17:33.389Z,56.70
2018-06-08T08:20:01.742Z,56.53
2018-06-08T08:22:30.119Z,62.40
2018-06-08T08:24:58.452Z,54.97
2018-06-08T08:27:26.811Z,49.30
2018-06-08T08:29:55.149Z,52.07
2018-06-08T08:32:23.494Z,45.87
2018-06-08T08:34:51.845Z,46.33
2018-06-08T08:37:20.211Z,48.90
2018-06-08T08:39:48.601Z,58.90
2018-06-08T08:42:17.006Z,49.47
2018-06-08T08:44:45.360Z,50.40
2018-06-08T08:53:12.596Z,85.43
2018-06-08T08:55:49.056Z,84.90
2018-06-08T08:58:22.729Z,81.00
2018-06-08T09:00:54.985Z,72.73
2018-06-08T09:03:50.067Z,80.63
2018-06-08T09:06:35.052Z,73.87
2018-06-08T09:09:07.176Z,64.10
2018-06-08T09:11:53.172Z,83.87
2018-06-08T09:14:28.563Z,71.47
2018-06-08T09:16:57.593Z,72.70
2018-06-08T09:19:27.211Z,78.30
2018-06-08T09:22:07.853Z,84.63
2018-06-08T09:24:42.206Z,84.73
2018-06-08T09:27:11.805Z,78.13
2018-06-08T09:29:40.650Z,77.90
2018-06-08T09:32:13.998Z,79.40
2018-06-08T09:34:49.572Z,84.90
2018-06-08T09:37:18.845Z,95.50
2018-06-08T09:39:49.587Z,91.53
2018-06-08T09:42:21.101Z,98.13
2018-06-08T09:44:49.673Z,94.63
2018-06-08T09:47:19.015Z,91.13
2018-06-08T09:49:51.648Z,82.73
2018-06-08T09:52:20.684Z,81.37
2018-06-08T09:54:49.405Z,75.27
2018-06-08T09:57:20.926Z,81.70
2018-06-08T09:59:50.514Z,30.10
2018-06-08T10:02:19.993Z,38.13
2018-06-08T10:04:51.254Z,6.93
2018-06-08T10:07:21.396Z,24.00
2018-06-08T10:09:51.226Z,19.13
2018-06-08T10:12:22.645Z,17.70
2018-06-08T10:14:54.075Z,11.00
2018-06-08T10:17:34.677Z,10.43
2018-06-08T10:20:06.577Z,18.47
2018-06-08T10:22:35.918Z,9.77
2018-06-08T10:25:04.897Z,17.40
2018-06-08T10:30:26.754Z,15.73
2018-06-08T10:32:57.730Z,16.27
2018-06-08T10:35:27.023Z,11.43
2018-06-08T10:37:56.368Z,13.73
2018-06-08T10:40:26.769Z,17.47
2018-06-08T10:42:56.764Z,12.50
2018-06-08T10:45:27.901Z,13.40
2018-06-08T10:47:59.661Z,18.33
2018-06-08T10:50:31.229Z,10.93
2018-06-08T10:53:00.366Z,8.60
2018-06-08T10:55:31.783Z,14.70
2018-06-08T10:58:02.936Z,10.20
2018-06-08T11:00:56.554Z,11.67
2018-06-08T11:03:27.941Z,16.20
2018-06-08T11:05:57.754Z,12.00
2018-06-08T11:08:28.703Z,8.37
2018-06-08T11:11:08.774Z,9.20
2018-06-08T11:13:41.527Z,8.07
2018-06-08T11:16:17.716Z,19.67
2018-06-08T11:18:54.216Z,8.20
2018-06-08T11:21:25.796Z,3.80
2018-06-08T11:23:54.368Z,5.03
2018-06-08T11:26:29.155Z,20.03
2018-06-08T11:29:06.299Z,9.53
2018-06-08T11:31:37.156Z,5.53
2018-06-08T11:34:07.395Z,14.70
2018-06-08T11:36:39.311Z,11.53
2018-06-08T11:39:12.395Z,12.80
2018-06-08T12:00:00.822Z,5.73
2018-06-08T12:02:35.521Z,11.70
2018-06-08T12:11:16.572Z,4.93
2018-06-08T12:32:18.283Z,13.00
2018-06-08T12:34:48.952Z,5.87
2018-06-08T14:08:31.584Z,11.30
2018-06-08T14:11:19.893Z,10.40
2018-06-08T14:13:58.958Z,12.47
2018-06-08T14:16:44.153Z,6.13
2018-06-08T14:19:35.375Z,10.20
2018-06-08T14:22:04.175Z,10.53
2018-06-08T14:24:36.539Z,8.80
2018-06-08T14:27:05.105Z,13.10
2018-06-08T14:29:33.932Z,6.97
2018-06-08T14:32:02.579Z,5.67
2018-06-08T14:34:30.950Z,7.60
2018-06-08T14:36:59.579Z,8.97
2018-06-08T14:39:29.196Z,4.43
2018-06-08T14:41:57.921Z,6.73
2018-06-08T14:44:26.906Z,8.93
2018-06-08T14:46:55.271Z,8.73
2018-06-08T14:49:23.651Z,16.47
2018-06-08T14:51:52.031Z,15.10
2018-06-08T14:54:20.591Z,11.70
2018-06-08T14:56:48.964Z,23.87
2018-06-08T14:59:17.277Z,13.47
2018-06-08T15:01:45.589Z,16.43
2018-06-08T15:04:14.122Z,12.23
2018-06-08T15:06:42.536Z,11.97
2018-06-08T15:09:11.300Z,7.33
2018-06-08T15:11:40.301Z,9.10
2018-06-08T15:14:08.618Z,14.50
2018-06-08T15:16:36.909Z,12.57
2018-06-08T15:19:06.470Z,10.13
2018-06-08T15:21:34.892Z,7.97
2018-06-08T15:24:03.703Z,16.83
2018-06-08T15:26:32.153Z,14.23
2018-06-08T15:29:00.572Z,6.20
2018-06-08T15:31:28.900Z,15.30
2018-06-08T15:33:57.320Z,15.67
2018-06-08T15:36:31.230Z,11.87
2018-06-08T15:38:59.544Z,9.70
2018-06-08T15:41:28.025Z,15.30
2018-06-08T15:43:56.700Z,14.33
2018-06-08T15:46:25.389Z,11.30
2018-06-08T15:48:53.801Z,7.27
2018-06-08T15:51:22.151Z,12.83
2018-06-08T15:53:50.410Z,6.37
2018-06-08T15:56:18.753Z,13.43
2018-06-08T15:58:47.114Z,16.10
2018-06-08T16:01:15.567Z,12.57
2018-06-08T16:03:44.731Z,14.43
2018-06-08T16:06:13.324Z,13.63
2018-06-08T16:08:41.858Z,49.67
2018-06-08T16:11:10.518Z,55.17
2018-06-08T16:13:39.030Z,52.43
2018-06-08T16:16:07.565Z,62.37
2018-06-08T16:18:36.121Z,60.80
2018-06-08T16:21:05.374Z,60.53
2018-06-08T16:23:33.853Z,63.33
2018-06-08T16:26:03.362Z,66.03
2018-06-08T16:28:32.691Z,66.93
2018-06-08T16:31:01.618Z,70.40
2018-06-08T16:33:30.864Z,74.43
2018-06-08T16:36:01.130Z,67.73
2018-06-08T16:38:29.571Z,69.63
2018-06-08T16:40:58.096Z,67.80
2018-06-08T16:43:26.649Z,60.83
2018-06-08T16:45:55.010Z,64.10
2018-06-08T16:48:23.855Z,63.40
2018-06-08T16:50:52.217Z,63.97
2018-06-08T16:53:20.706Z,67.93
2018-06-08T16:55:49.171Z,70.80
2018-06-08T16:58:17.797Z,64.80
2018-06-08T17:06:54.235Z,80.03
2018-06-08T17:09:23.873Z,77.23
2018-06-08T17:11:53.620Z,81.00
2018-06-08T17:14:32.768Z,83.23
2018-06-08T17:17:17.913Z,71.77
2018-06-08T17:19:47.982Z,81.63
2018-06-08T17:22:17.050Z,87.90
2018-06-08T17:24:49.576Z,87.37
2018-06-08T17:27:25.789Z,84.30
2018-06-08T17:30:12.932Z,83.60
2018-06-08T17:32:47.512Z,94.83
2018-06-08T17:35:27.270Z,99.70
2018-06-08T17:38:11.584Z,93.77
2018-06-08T17:40:40.265Z,91.17
2018-06-08T17:43:13.825Z,94.30
2018-06-08T17:45:45.009Z,98.23
2018-06-08T17:48:16.930Z,86.70
2018-06-08T17:53:41.484Z,93.90
2018-06-08T17:56:17.072Z,85.87
2018-06-08T17:58:52.318Z,95.03
2018-06-08T18:01:30.995Z,89.80
2018-06-08T18:04:20.138Z,104.27
2018-06-08T18:07:05.033Z,99.90
2018-06-08T18:09:49.383Z,108.03
2018-06-08T18:12:38.659Z,103.03
2018-06-08T18:15:50.475Z,115.53
2018-06-08T18:18:56.537Z,102.90
2018-06-08T18:24:28.420Z,111.10
2018-06-08T18:30:55.891Z,124.90
2018-06-08T18:33:25.070Z,115.80
2018-06-08T18:35:55.845Z,124.50
2018-06-08T18:38:25.421Z,131.47
2018-06-08T18:40:57.343Z,120.07
2018-06-08T18:43:26.159Z,128.33
2018-06-08T18:48:49.093Z,131.23
2018-06-08T18:51:18.016Z,122.83
2018-06-08T18:53:50.823Z,117.60
2018-06-08T18:56:22.691Z,124.90
2018-06-08T18:58:51.840Z,119.70
2018-06-08T19:01:20.824Z,125.33
2018-06-08T19:03:50.446Z,123.00
2018-06-08T19:06:19.176Z,118.60
2018-06-08T19:08:47.624Z,114.23
2018-06-08T19:11:15.949Z,126.47
2018-06-08T19:13:45.850Z,121.93
2018-06-08T19:16:14.744Z,117.97
2018-06-08T19:18:43.334Z,105.17
2018-06-08T19:21:11.739Z,109.53
2018-06-08T19:23:40.160Z,106.17
2018-06-08T19:26:08.664Z,111.97
2018-06-08T19:28:36.969Z,116.60
2018-06-08T19:31:09.355Z,113.67
2018-06-08T19:33:37.753Z,107.27
2018-06-08T19:36:06.213Z,106.17
2018-06-08T19:38:35.501Z,127.80
2018-06-08T19:41:03.821Z,124.93
2018-06-08T19:43:32.404Z,132.07
2018-06-08T19:46:00.802Z,145.70
2018-06-08T19:48:30.301Z,128.93
2018-06-08T19:50:59.634Z,149.10
2018-06-08T19:53:41.780Z,134.93
2018-06-08T19:56:12.213Z,139.77
2018-06-08T19:58:41.244Z,129.13
2018-06-08T20:01:09.915Z,133.30
2018-06-08T20:03:38.297Z,130.60
2018-06-08T20:06:06.866Z,138.10
2018-06-08T20:08:37.107Z,130.00
2018-06-08T20:11:06.088Z,130.47
2018-06-08T20:13:42.707Z,124.90
2018-06-08T20:16:24.874Z,115.63
2018-06-08T20:19:02.718Z,123.37
2018-06-08T20:28:24.393Z,124.00
2018-06-08T20:31:02.123Z,132.73
2018-06-08T20:33:32.962Z,134.07
2018-06-08T20:36:05.554Z,124.47
2018-06-08T20:38:55.083Z,116.43
2018-06-08T20:41:25.595Z,116.03
2018-06-08T20:43:56.374Z,112.73
2018-06-08T20:46:35.969Z,108.40
2018-06-08T20:49:07.290Z,106.07
2018-06-08T20:52:22.475Z,107.17
2018-06-08T20:55:11.518Z,112.70
2018-06-08T20:57:56.864Z,121.63
2018-06-08T21:00:25.509Z,113.47
2018-06-08T21:02:54.871Z,113.57
2018-06-08T21:05:24.691Z,106.67
2018-06-08T21:07:54.198Z,108.93
2018-06-08T21:10:28.397Z,122.87
2018-06-08T21:13:13.019Z,112.37
2018-06-08T21:15:53.922Z,115.70
2018-06-08T21:18:26.303Z,109.67
2018-06-08T21:20:54.741Z,108.20
2018-06-08T21:23:24.088Z,117.53
2018-06-08T21:25:54.932Z,122.77
2018-06-08T21:28:24.105Z,107.70
2018-06-08T21:30:53.428Z,117.43
2018-06-08T21:33:22.692Z,114.30
2018-06-08T21:36:01.487Z,118.77
2018-06-08T21:38:35.560Z,113.47
2018-06-08T21:41:11.134Z,115.27
2018-06-08T21:43:50.166Z,128.77
2018-06-08T21:46:20.439Z,116.97
2018-06-08T21:48:49.332Z,120.07
2018-06-08T21:51:18.518Z,121.20
2018-06-08T22:30:59.185Z,130.93
2018-06-08T22:33:36.017Z,138.03
2018-06-08T22:43:48.663Z,138.87
2018-06-08T22:46:21.749Z,138.97
2018-06-08T22:52:21.856Z,130.33
2018-06-08T22:58:12.924Z,135.60
2018-06-08T23:00:41.677Z,131.37
2018-06-08T23:03:10.593Z,133.40
2018-06-08T23:05:39.270Z,147.00
2018-06-08T23:08:13.826Z,130.13
2018-06-08T23:10:50.256Z,134.67
2018-06-08T23:13:18.817Z,137.40
2018-06-08T23:15:47.208Z,151.43
2018-06-08T23:18:15.548Z,156.40
2018-06-08T23:20:43.982Z,139.93
2018-06-08T23:23:12.436Z,142.93
2018-06-08T23:25:40.802Z,135.57
2018-06-08T23:28:09.192Z,148.13
2018-06-08T23:30:37.670Z,145.37
2018-06-08T23:33:06.245Z,137.53
2018-06-08T23:35:36.192Z,145.33
2018-06-08T23:38:04.893Z,145.73
2018-06-08T23:40:33.523Z,145.07
2018-06-08T23:43:02.300Z,140.43
2018-06-08T23:45:31.102Z,154.80
2018-06-08T23:47:59.785Z,151.70
2018-06-08T23:50:28.722Z,143.90
2018-06-08T23:52:57.303Z,157.67
2018-06-08T23:55:29.535Z,139.30
2018-06-08T23:57:58.505Z,143.47
